bikiniriot.com alexa rank chart, bikiniriot.com alexa rank daily changes

bikiniriot.com alexa rank chart, bikiniriot.com alexa rank daily changes

bikiniriot.com
Actual rank:
289 088

RANK HISTORY

Date Rank Diff
2017/09/20 289 088 -4 703
2017/09/19 293 791 -5 260
2017/09/18 299 051 +3 125
2017/09/17 295 926 +10 230
2017/09/16 285 696 +4 947
2017/09/15 280 749 -19 092
2017/09/14 299 841 +8 953
2017/09/13 290 888 +8 026
2017/09/12 282 862 -3 473
2017/09/11 286 335 +3 081
2017/09/10 283 254 +2 458
2017/09/09 280 796 -3 506
2017/09/08 284 302 +2 669
2017/09/07 281 633 -6 372
2017/09/06 288 005 +5 790
2017/09/05 282 215 -9 481
2017/09/04 291 696 -2 296
2017/09/03 293 992 -1 656
2017/09/02 295 648 -10 999
2017/09/01 306 647 +12 612
2017/08/31 294 035 -5 650
2017/08/30 299 685 +1 535
2017/08/29 298 150 -10 577
2017/08/28 308 727 -2 137
2017/08/27 310 864 -8 213
2017/08/26 319 077 -373
2017/08/25 319 450 +8 253
2017/08/24 311 197 +8 422
2017/08/23 302 775 -4 280
2017/08/22 307 055 -4 198
2017/08/21 311 253 -7 577
2017/08/20 318 830 +10 347
2017/08/19 308 483 +4 801
2017/08/18 303 682 +10 417
2017/08/17 293 265 -7 832
2017/08/16 301 097 -7 734
2017/08/15 308 831 -5 497
2017/08/14 314 328 -13 577
2017/08/13 327 905 -9 269
2017/08/12 337 174 +491
2017/08/11 336 683 -2 219
2017/08/10 338 902 -1 089
2017/08/09 339 991 +22 157
2017/08/08 317 834 -401
2017/08/07 318 235 +22 356
2017/08/06 295 879 +936
2017/08/05 294 943 +4 848
2017/08/04 290 095 +11 093
2017/08/03 279 002 -5 507
2017/08/02 284 509 -4 160
2017/08/01 288 669 -12 239
2017/07/31 300 908 +646
2017/07/30 300 262 -5 015
2017/07/29 305 277 +1 406
2017/07/28 303 871 -6 187
2017/07/27 310 058 +2 600
2017/07/26 307 458 +16 680
2017/07/25 290 778 -1 847
2017/07/24 292 625 -10 409
2017/07/23 303 034 +2 238
2017/07/22 300 796

WIDGET FOR YOUR SITE

DOMAINS WITH THE NEAREST RANK

Domain Rank
ladypopular.com.hr 289 083
regional.com.py 289 084
operauni.tn.it 289 085
100500miles.ru 289 086
vcfm.ru 289 087
bikiniriot.com 289 088
coopervisionrewards.com 289 089
filesquickarchive.win 289 090
enginebuildermag.com 289 091
ageha.com 289 092
uned-illesbalears.net 289 093

DOMAINS WITH THE NEAREST RANK BY TLD .com

Domain Rank
freealarmclocksoftware.com 289 072
kirax2cafe.com 289 074
comelitgroup.com 289 078
regexplanet.com 289 080
softnyxbrasil.com 289 081
bikiniriot.com 289 088
coopervisionrewards.com 289 089
enginebuildermag.com 289 091
ageha.com 289 092
sporyazarlari.com 289 097
power-essays.com 289 099